sensor_id;sensor_type;location;lat;lon;timestamp;temperature;humidity
2539;DHT22;1280;49.760;9.664;2022-08-25T00:01:43;23.00;63.30
2539;DHT22;1280;49.760;9.664;2022-08-25T00:04:14;23.00;63.30
2539;DHT22;1280;49.760;9.664;2022-08-25T00:06:44;23.00;63.20
2539;DHT22;1280;49.760;9.664;2022-08-25T00:09:17;23.00;63.20
2539;DHT22;1280;49.760;9.664;2022-08-25T00:11:46;22.90;63.20
2539;DHT22;1280;49.760;9.664;2022-08-25T00:14:18;22.90;63.20
2539;DHT22;1280;49.760;9.664;2022-08-25T00:16:46;22.80;63.30
2539;DHT22;1280;49.760;9.664;2022-08-25T00:19:17;22.80;63.30
2539;DHT22;1280;49.760;9.664;2022-08-25T00:21:46;22.80;63.20
2539;DHT22;1280;49.760;9.664;2022-08-25T00:24:16;22.70;63.20
2539;DHT22;1280;49.760;9.664;2022-08-25T00:26:48;22.70;63.20
2539;DHT22;1280;49.760;9.664;2022-08-25T00:29:17;22.70;63.20
2539;DHT22;1280;49.760;9.664;2022-08-25T00:31:46;22.70;63.20
2539;DHT22;1280;49.760;9.664;2022-08-25T00:34:16;22.60;63.30
2539;DHT22;1280;49.760;9.664;2022-08-25T00:36:45;22.60;63.20
2539;DHT22;1280;49.760;9.664;2022-08-25T00:39:15;22.60;63.20
2539;DHT22;1280;49.760;9.664;2022-08-25T00:41:43;22.60;63.20
2539;DHT22;1280;49.760;9.664;2022-08-25T00:44:12;22.50;63.30
2539;DHT22;1280;49.760;9.664;2022-08-25T00:46:45;22.50;63.30
2539;DHT22;1280;49.760;9.664;2022-08-25T00:49:15;22.40;63.40
2539;DHT22;1280;49.760;9.664;2022-08-25T00:51:53;22.40;63.40
2539;DHT22;1280;49.760;9.664;2022-08-25T00:54:27;22.30;63.40
2539;DHT22;1280;49.760;9.664;2022-08-25T00:56:56;22.30;63.60
2539;DHT22;1280;49.760;9.664;2022-08-25T00:59:25;22.30;63.60
2539;DHT22;1280;49.760;9.664;2022-08-25T01:01:54;22.20;63.60
2539;DHT22;1280;49.760;9.664;2022-08-25T01:04:22;22.20;63.60
2539;DHT22;1280;49.760;9.664;2022-08-25T01:06:51;22.20;63.60
2539;DHT22;1280;49.760;9.664;2022-08-25T01:09:19;22.10;63.60
2539;DHT22;1280;49.760;9.664;2022-08-25T01:11:49;22.00;63.60
2539;DHT22;1280;49.760;9.664;2022-08-25T01:14:18;22.00;63.70
2539;DHT22;1280;49.760;9.664;2022-08-25T01:16:47;21.90;63.70
2539;DHT22;1280;49.760;9.664;2022-08-25T01:19:20;21.90;63.80
2539;DHT22;1280;49.760;9.664;2022-08-25T01:21:51;21.80;63.80
2539;DHT22;1280;49.760;9.664;2022-08-25T01:24:23;21.80;63.90
2539;DHT22;1280;49.760;9.664;2022-08-25T01:26:52;21.70;64.00
2539;DHT22;1280;49.760;9.664;2022-08-25T01:29:20;21.70;64.00
2539;DHT22;1280;49.760;9.664;2022-08-25T01:31:54;21.70;64.10
2539;DHT22;1280;49.760;9.664;2022-08-25T01:34:25;21.70;64.20
2539;DHT22;1280;49.760;9.664;2022-08-25T01:36:56;21.70;64.30
2539;DHT22;1280;49.760;9.664;2022-08-25T01:39:25;21.70;64.40
2539;DHT22;1280;49.760;9.664;2022-08-25T01:42:08;21.60;64.50
2539;DHT22;1280;49.760;9.664;2022-08-25T01:44:42;21.60;64.60
2539;DHT22;1280;49.760;9.664;2022-08-25T01:47:11;21.60;64.80
2539;DHT22;1280;49.760;9.664;2022-08-25T01:49:39;21.60;64.90
2539;DHT22;1280;49.760;9.664;2022-08-25T01:52:14;21.50;65.00
2539;DHT22;1280;49.760;9.664;2022-08-25T01:54:42;21.50;65.10
2539;DHT22;1280;49.760;9.664;2022-08-25T01:57:10;21.50;65.10
2539;DHT22;1280;49.760;9.664;2022-08-25T01:59:38;21.60;65.20
2539;DHT22;1280;49.760;9.664;2022-08-25T02:02:06;21.60;65.30
2539;DHT22;1280;49.760;9.664;2022-08-25T02:04:36;21.60;65.30
2539;DHT22;1280;49.760;9.664;2022-08-25T02:07:07;21.60;65.30
2539;DHT22;1280;49.760;9.664;2022-08-25T02:09:37;21.60;65.50
2539;DHT22;1280;49.760;9.664;2022-08-25T02:12:06;21.60;65.50
2539;DHT22;1280;49.760;9.664;2022-08-25T02:14:35;21.60;65.50
2539;DHT22;1280;49.760;9.664;2022-08-25T02:17:04;21.60;65.60
2539;DHT22;1280;49.760;9.664;2022-08-25T02:19:32;21.50;65.50
2539;DHT22;1280;49.760;9.664;2022-08-25T02:22:01;21.50;65.50
2539;DHT22;1280;49.760;9.664;2022-08-25T02:24:29;21.50;65.60
2539;DHT22;1280;49.760;9.664;2022-08-25T02:26:58;21.50;65.70
2539;DHT22;1280;49.760;9.664;2022-08-25T02:29:26;21.50;65.70
2539;DHT22;1280;49.760;9.664;2022-08-25T02:31:54;21.50;65.70
2539;DHT22;1280;49.760;9.664;2022-08-25T02:34:22;21.50;65.70
2539;DHT22;1280;49.760;9.664;2022-08-25T02:36:50;21.40;65.70
2539;DHT22;1280;49.760;9.664;2022-08-25T02:39:18;21.40;65.80
2539;DHT22;1280;49.760;9.664;2022-08-25T02:41:46;21.40;65.80
2539;DHT22;1280;49.760;9.664;2022-08-25T02:44:15;21.40;65.80
2539;DHT22;1280;49.760;9.664;2022-08-25T02:46:43;21.40;65.90
2539;DHT22;1280;49.760;9.664;2022-08-25T02:49:11;21.40;65.90
2539;DHT22;1280;49.760;9.664;2022-08-25T02:51:39;21.30;65.90
2539;DHT22;1280;49.760;9.664;2022-08-25T02:54:07;21.30;65.90
2539;DHT22;1280;49.760;9.664;2022-08-25T02:56:35;21.30;66.00
2539;DHT22;1280;49.760;9.664;2022-08-25T02:59:03;21.30;66.00
2539;DHT22;1280;49.760;9.664;2022-08-25T03:01:32;21.20;66.10
2539;DHT22;1280;49.760;9.664;2022-08-25T03:04:01;21.20;66.20
2539;DHT22;1280;49.760;9.664;2022-08-25T03:06:29;21.20;66.30
2539;DHT22;1280;49.760;9.664;2022-08-25T03:08:57;21.20;66.30
2539;DHT22;1280;49.760;9.664;2022-08-25T03:11:26;21.20;66.30
2539;DHT22;1280;49.760;9.664;2022-08-25T03:13:54;21.10;66.30
2539;DHT22;1280;49.760;9.664;2022-08-25T03:16:23;21.00;66.30
2539;DHT22;1280;49.760;9.664;2022-08-25T03:18:55;21.00;66.40
2539;DHT22;1280;49.760;9.664;2022-08-25T03:21:23;21.00;66.40
2539;DHT22;1280;49.760;9.664;2022-08-25T03:23:52;20.90;66.60
2539;DHT22;1280;49.760;9.664;2022-08-25T03:26:20;20.90;66.70
2539;DHT22;1280;49.760;9.664;2022-08-25T03:29:06;20.90;66.80
2539;DHT22;1280;49.760;9.664;2022-08-25T03:31:35;20.90;67.00
2539;DHT22;1280;49.760;9.664;2022-08-25T03:34:05;20.80;67.10
2539;DHT22;1280;49.760;9.664;2022-08-25T03:36:33;20.80;67.30
2539;DHT22;1280;49.760;9.664;2022-08-25T03:39:01;20.80;67.40
2539;DHT22;1280;49.760;9.664;2022-08-25T03:41:30;20.80;67.50
2539;DHT22;1280;49.760;9.664;2022-08-25T03:44:00;20.80;67.50
2539;DHT22;1280;49.760;9.664;2022-08-25T03:46:31;20.80;67.60
2539;DHT22;1280;49.760;9.664;2022-08-25T03:49:01;20.80;67.60
2539;DHT22;1280;49.760;9.664;2022-08-25T03:51:32;20.80;67.60
2539;DHT22;1280;49.760;9.664;2022-08-25T03:54:01;20.80;67.50
2539;DHT22;1280;49.760;9.664;2022-08-25T03:56:29;20.70;67.50
2539;DHT22;1280;49.760;9.664;2022-08-25T03:58:58;20.70;67.50
2539;DHT22;1280;49.760;9.664;2022-08-25T04:01:26;20.70;67.40
2539;DHT22;1280;49.760;9.664;2022-08-25T04:03:55;20.70;67.40
2539;DHT22;1280;49.760;9.664;2022-08-25T04:06:23;20.60;67.40
2539;DHT22;1280;49.760;9.664;2022-08-25T04:08:52;20.60;67.40
2539;DHT22;1280;49.760;9.664;2022-08-25T04:11:22;20.60;67.30
2539;DHT22;1280;49.760;9.664;2022-08-25T04:13:51;20.50;67.40
2539;DHT22;1280;49.760;9.664;2022-08-25T04:16:21;20.50;67.40
2539;DHT22;1280;49.760;9.664;2022-08-25T04:18:50;20.50;67.40
2539;DHT22;1280;49.760;9.664;2022-08-25T04:21:19;20.50;67.40
2539;DHT22;1280;49.760;9.664;2022-08-25T04:23:49;20.40;67.30
2539;DHT22;1280;49.760;9.664;2022-08-25T04:26:21;20.40;67.30
2539;DHT22;1280;49.760;9.664;2022-08-25T04:28:49;20.40;67.30
2539;DHT22;1280;49.760;9.664;2022-08-25T04:31:19;20.30;67.20
2539;DHT22;1280;49.760;9.664;2022-08-25T04:33:48;20.30;67.30
2539;DHT22;1280;49.760;9.664;2022-08-25T04:36:18;20.30;67.30
2539;DHT22;1280;49.760;9.664;2022-08-25T04:38:47;20.20;67.40
2539;DHT22;1280;49.760;9.664;2022-08-25T04:41:18;20.20;67.50
2539;DHT22;1280;49.760;9.664;2022-08-25T04:43:47;20.10;67.50
2539;DHT22;1280;49.760;9.664;2022-08-25T04:46:17;20.10;67.60
2539;DHT22;1280;49.760;9.664;2022-08-25T04:48:46;20.00;67.70
2539;DHT22;1280;49.760;9.664;2022-08-25T04:51:17;20.00;67.80
2539;DHT22;1280;49.760;9.664;2022-08-25T04:53:45;20.00;67.90
2539;DHT22;1280;49.760;9.664;2022-08-25T04:56:15;20.00;68.00
2539;DHT22;1280;49.760;9.664;2022-08-25T04:58:45;20.10;68.10
2539;DHT22;1280;49.760;9.664;2022-08-25T05:01:14;20.10;68.20
2539;DHT22;1280;49.760;9.664;2022-08-25T05:03:43;20.10;68.30
2539;DHT22;1280;49.760;9.664;2022-08-25T05:06:12;20.10;68.50
2539;DHT22;1280;49.760;9.664;2022-08-25T05:08:44;20.20;68.60
2539;DHT22;1280;49.760;9.664;2022-08-25T05:11:14;20.30;68.80
2539;DHT22;1280;49.760;9.664;2022-08-25T05:13:45;20.80;69.50
2539;DHT22;1280;49.760;9.664;2022-08-25T05:16:17;21.60;68.80
2539;DHT22;1280;49.760;9.664;2022-08-25T05:18:46;22.30;67.50
2539;DHT22;1280;49.760;9.664;2022-08-25T05:21:17;22.80;66.70
2539;DHT22;1280;49.760;9.664;2022-08-25T05:23:46;23.40;66.20
2539;DHT22;1280;49.760;9.664;2022-08-25T05:26:16;24.10;65.70
2539;DHT22;1280;49.760;9.664;2022-08-25T05:28:48;25.00;64.60
2539;DHT22;1280;49.760;9.664;2022-08-25T05:31:17;25.80;63.30
2539;DHT22;1280;49.760;9.664;2022-08-25T05:33:46;26.60;62.20
2539;DHT22;1280;49.760;9.664;2022-08-25T05:36:15;27.40;60.90
2539;DHT22;1280;49.760;9.664;2022-08-25T05:38:43;28.10;59.70
2539;DHT22;1280;49.760;9.664;2022-08-25T05:41:13;28.80;58.50
2539;DHT22;1280;49.760;9.664;2022-08-25T05:43:46;29.50;57.20
2539;DHT22;1280;49.760;9.664;2022-08-25T05:46:16;30.10;56.20
2539;DHT22;1280;49.760;9.664;2022-08-25T05:48:45;30.40;54.60
2539;DHT22;1280;49.760;9.664;2022-08-25T05:51:13;29.90;53.50
2539;DHT22;1280;49.760;9.664;2022-08-25T05:53:43;28.90;53.70
2539;DHT22;1280;49.760;9.664;2022-08-25T05:56:12;27.80;54.50
2539;DHT22;1280;49.760;9.664;2022-08-25T05:58:40;26.80;55.30
2539;DHT22;1280;49.760;9.664;2022-08-25T06:01:16;26.00;56.20
2539;DHT22;1280;49.760;9.664;2022-08-25T06:04:04;25.30;57.30
2539;DHT22;1280;49.760;9.664;2022-08-25T06:06:32;24.60;58.40
2539;DHT22;1280;49.760;9.664;2022-08-25T06:09:01;24.10;59.50
2539;DHT22;1280;49.760;9.664;2022-08-25T06:11:29;23.80;60.40
2539;DHT22;1280;49.760;9.664;2022-08-25T06:13:57;23.50;61.20
2539;DHT22;1280;49.760;9.664;2022-08-25T06:16:25;23.30;62.00
2539;DHT22;1280;49.760;9.664;2022-08-25T06:18:53;23.00;62.80
2539;DHT22;1280;49.760;9.664;2022-08-25T06:21:22;22.90;63.40
2539;DHT22;1280;49.760;9.664;2022-08-25T06:23:51;22.80;64.00
2539;DHT22;1280;49.760;9.664;2022-08-25T06:26:19;22.70;64.60
2539;DHT22;1280;49.760;9.664;2022-08-25T06:28:47;22.60;65.10
2539;DHT22;1280;49.760;9.664;2022-08-25T06:31:16;22.50;65.80
2539;DHT22;1280;49.760;9.664;2022-08-25T06:33:45;22.50;66.20
2539;DHT22;1280;49.760;9.664;2022-08-25T06:36:13;22.40;66.70
2539;DHT22;1280;49.760;9.664;2022-08-25T06:38:43;22.30;67.40
2539;DHT22;1280;49.760;9.664;2022-08-25T06:41:11;22.30;67.80
2539;DHT22;1280;49.760;9.664;2022-08-25T06:43:40;22.20;68.20
2539;DHT22;1280;49.760;9.664;2022-08-25T06:46:17;22.20;68.40
2539;DHT22;1280;49.760;9.664;2022-08-25T06:48:46;22.20;69.00
2539;DHT22;1280;49.760;9.664;2022-08-25T06:51:16;22.20;69.20
2539;DHT22;1280;49.760;9.664;2022-08-25T06:53:47;22.20;69.70
2539;DHT22;1280;49.760;9.664;2022-08-25T06:56:18;22.20;69.70
2539;DHT22;1280;49.760;9.664;2022-08-25T06:58:47;22.20;70.00
2539;DHT22;1280;49.760;9.664;2022-08-25T07:01:16;22.30;70.20
2539;DHT22;1280;49.760;9.664;2022-08-25T07:03:47;22.30;70.20
2539;DHT22;1280;49.760;9.664;2022-08-25T07:06:18;22.50;70.40
2539;DHT22;1280;49.760;9.664;2022-08-25T07:08:47;22.60;70.50
2539;DHT22;1280;49.760;9.664;2022-08-25T07:11:15;22.60;70.50
2539;DHT22;1280;49.760;9.664;2022-08-25T07:13:44;22.70;70.50
2539;DHT22;1280;49.760;9.664;2022-08-25T07:16:13;22.70;70.60
2539;DHT22;1280;49.760;9.664;2022-08-25T07:18:42;22.80;70.70
2539;DHT22;1280;49.760;9.664;2022-08-25T07:21:11;22.80;70.80
2539;DHT22;1280;49.760;9.664;2022-08-25T07:23:40;22.90;70.80
2539;DHT22;1280;49.760;9.664;2022-08-25T07:26:12;23.00;70.80
2539;DHT22;1280;49.760;9.664;2022-08-25T07:29:00;23.00;70.90
2539;DHT22;1280;49.760;9.664;2022-08-25T07:31:28;23.10;70.90
2539;DHT22;1280;49.760;9.664;2022-08-25T07:33:57;23.20;70.90
2539;DHT22;1280;49.760;9.664;2022-08-25T07:36:43;23.20;70.90
2539;DHT22;1280;49.760;9.664;2022-08-25T07:39:11;23.30;71.10
2539;DHT22;1280;49.760;9.664;2022-08-25T07:41:41;23.30;71.00
2539;DHT22;1280;49.760;9.664;2022-08-25T07:44:10;23.30;71.10
2539;DHT22;1280;49.760;9.664;2022-08-25T07:46:39;23.40;71.10
2539;DHT22;1280;49.760;9.664;2022-08-25T07:49:08;23.40;71.10
2539;DHT22;1280;49.760;9.664;2022-08-25T07:51:42;23.50;71.20
2539;DHT22;1280;49.760;9.664;2022-08-25T07:54:30;23.50;71.40
2539;DHT22;1280;49.760;9.664;2022-08-25T07:57:02;23.50;71.30
2539;DHT22;1280;49.760;9.664;2022-08-25T07:59:30;23.50;71.40
2539;DHT22;1280;49.760;9.664;2022-08-25T08:02:06;23.60;71.30
2539;DHT22;1280;49.760;9.664;2022-08-25T08:04:44;23.60;71.40
2539;DHT22;1280;49.760;9.664;2022-08-25T08:07:15;23.70;71.40
2539;DHT22;1280;49.760;9.664;2022-08-25T08:09:45;23.80;71.30
2539;DHT22;1280;49.760;9.664;2022-08-25T08:12:20;23.80;71.20
2539;DHT22;1280;49.760;9.664;2022-08-25T08:14:48;23.90;71.10
2539;DHT22;1280;49.760;9.664;2022-08-25T08:17:16;23.90;71.10
2539;DHT22;1280;49.760;9.664;2022-08-25T08:19:45;24.00;71.10
2539;DHT22;1280;49.760;9.664;2022-08-25T08:22:13;24.00;71.10
2539;DHT22;1280;49.760;9.664;2022-08-25T08:24:42;24.10;71.00
2539;DHT22;1280;49.760;9.664;2022-08-25T08:27:22;24.10;71.00
2539;DHT22;1280;49.760;9.664;2022-08-25T08:29:51;24.10;71.10
2539;DHT22;1280;49.760;9.664;2022-08-25T08:32:20;24.20;71.00
2539;DHT22;1280;49.760;9.664;2022-08-25T08:35:01;24.20;70.90
2539;DHT22;1280;49.760;9.664;2022-08-25T08:37:29;24.30;70.70
2539;DHT22;1280;49.760;9.664;2022-08-25T08:39:57;24.30;70.60
2539;DHT22;1280;49.760;9.664;2022-08-25T08:42:45;24.30;70.70
2539;DHT22;1280;49.760;9.664;2022-08-25T08:45:28;24.40;70.70
2539;DHT22;1280;49.760;9.664;2022-08-25T08:48:39;24.50;70.50
2539;DHT22;1280;49.760;9.664;2022-08-25T08:51:17;24.50;70.40
2539;DHT22;1280;49.760;9.664;2022-08-25T08:53:54;24.50;70.40
2539;DHT22;1280;49.760;9.664;2022-08-25T08:56:27;24.60;70.40
2539;DHT22;1280;49.760;9.664;2022-08-25T08:59:01;24.70;70.20
2539;DHT22;1280;49.760;9.664;2022-08-25T09:01:34;24.70;70.10
2539;DHT22;1280;49.760;9.664;2022-08-25T09:04:11;24.80;70.00
2539;DHT22;1280;49.760;9.664;2022-08-25T09:06:48;24.90;69.80
2539;DHT22;1280;49.760;9.664;2022-08-25T09:09:23;25.00;69.60
2539;DHT22;1280;49.760;9.664;2022-08-25T09:11:59;25.00;69.50
2539;DHT22;1280;49.760;9.664;2022-08-25T09:14:38;25.00;69.20
2539;DHT22;1280;49.760;9.664;2022-08-25T09:17:13;25.10;69.10
2539;DHT22;1280;49.760;9.664;2022-08-25T09:20:19;25.10;69.00
2539;DHT22;1280;49.760;9.664;2022-08-25T09:22:57;25.20;68.80
2539;DHT22;1280;49.760;9.664;2022-08-25T09:25:35;25.30;68.60
2539;DHT22;1280;49.760;9.664;2022-08-25T09:28:22;25.40;68.20
2539;DHT22;1280;49.760;9.664;2022-08-25T09:30:57;25.40;68.00
2539;DHT22;1280;49.760;9.664;2022-08-25T09:33:27;25.50;67.90
2539;DHT22;1280;49.760;9.664;2022-08-25T09:36:01;25.60;67.80
2539;DHT22;1280;49.760;9.664;2022-08-25T09:38:31;25.60;67.60
2539;DHT22;1280;49.760;9.664;2022-08-25T09:41:01;25.70;67.30
2539;DHT22;1280;49.760;9.664;2022-08-25T09:43:40;25.70;67.20
2539;DHT22;1280;49.760;9.664;2022-08-25T09:46:11;25.80;67.20
2539;DHT22;1280;49.760;9.664;2022-08-25T09:48:44;25.80;67.10
2539;DHT22;1280;49.760;9.664;2022-08-25T09:51:25;25.90;66.90
2539;DHT22;1280;49.760;9.664;2022-08-25T09:53:57;25.90;66.70
2539;DHT22;1280;49.760;9.664;2022-08-25T09:56:48;25.90;66.70
2539;DHT22;1280;49.760;9.664;2022-08-25T09:59:22;26.00;66.60
2539;DHT22;1280;49.760;9.664;2022-08-25T10:02:04;26.00;66.50
2539;DHT22;1280;49.760;9.664;2022-08-25T10:04:34;26.00;66.20
2539;DHT22;1280;49.760;9.664;2022-08-25T10:07:20;26.00;66.10
2539;DHT22;1280;49.760;9.664;2022-08-25T10:09:53;26.10;66.00
2539;DHT22;1280;49.760;9.664;2022-08-25T10:12:29;26.10;65.80
2539;DHT22;1280;49.760;9.664;2022-08-25T10:15:15;26.10;65.60
2539;DHT22;1280;49.760;9.664;2022-08-25T10:18:17;26.20;65.50
2539;DHT22;1280;49.760;9.664;2022-08-25T10:21:06;26.30;65.20
2539;DHT22;1280;49.760;9.664;2022-08-25T10:23:39;26.30;64.90
2539;DHT22;1280;49.760;9.664;2022-08-25T10:26:15;26.40;64.90
2539;DHT22;1280;49.760;9.664;2022-08-25T10:28:58;26.40;64.70
2539;DHT22;1280;49.760;9.664;2022-08-25T10:31:35;26.40;64.50
2539;DHT22;1280;49.760;9.664;2022-08-25T10:34:18;26.40;64.30
2539;DHT22;1280;49.760;9.664;2022-08-25T10:36:55;26.50;64.10
2539;DHT22;1280;49.760;9.664;2022-08-25T10:39:33;26.60;64.10
2539;DHT22;1280;49.760;9.664;2022-08-25T10:42:20;26.60;64.00
2539;DHT22;1280;49.760;9.664;2022-08-25T10:45:03;26.70;63.70
2539;DHT22;1280;49.760;9.664;2022-08-25T10:48:21;26.70;63.40
2539;DHT22;1280;49.760;9.664;2022-08-25T10:50:57;26.80;63.40
2539;DHT22;1280;49.760;9.664;2022-08-25T10:53:38;26.80;63.20
2539;DHT22;1280;49.760;9.664;2022-08-25T10:56:12;26.80;63.00
2539;DHT22;1280;49.760;9.664;2022-08-25T10:59:21;26.80;62.90
2539;DHT22;1280;49.760;9.664;2022-08-25T11:02:15;26.80;62.70
2539;DHT22;1280;49.760;9.664;2022-08-25T11:04:52;26.80;62.70
2539;DHT22;1280;49.760;9.664;2022-08-25T11:07:29;26.80;62.80
2539;DHT22;1280;49.760;9.664;2022-08-25T11:10:02;26.90;62.60
2539;DHT22;1280;49.760;9.664;2022-08-25T11:12:33;26.90;62.30
2539;DHT22;1280;49.760;9.664;2022-08-25T11:15:06;27.00;62.00
2539;DHT22;1280;49.760;9.664;2022-08-25T11:17:40;27.00;61.80
2539;DHT22;1280;49.760;9.664;2022-08-25T11:20:13;27.00;61.70
2539;DHT22;1280;49.760;9.664;2022-08-25T11:23:05;27.00;61.70
2539;DHT22;1280;49.760;9.664;2022-08-25T11:25:41;27.10;61.50
2539;DHT22;1280;49.760;9.664;2022-08-25T11:28:11;27.10;61.50
2539;DHT22;1280;49.760;9.664;2022-08-25T11:30:41;27.10;61.30
2539;DHT22;1280;49.760;9.664;2022-08-25T11:33:13;27.20;61.30
2539;DHT22;1280;49.760;9.664;2022-08-25T11:35:46;27.20;61.20
2539;DHT22;1280;49.760;9.664;2022-08-25T11:38:29;27.20;61.20
2539;DHT22;1280;49.760;9.664;2022-08-25T11:41:07;27.20;61.10
2539;DHT22;1280;49.760;9.664;2022-08-25T11:44:06;27.30;61.00
2539;DHT22;1280;49.760;9.664;2022-08-25T11:47:05;27.30;60.90
2539;DHT22;1280;49.760;9.664;2022-08-25T11:49:52;27.30;60.80
2539;DHT22;1280;49.760;9.664;2022-08-25T11:52:44;27.20;60.90
2539;DHT22;1280;49.760;9.664;2022-08-25T11:55:20;27.30;60.90
2539;DHT22;1280;49.760;9.664;2022-08-25T11:57:51;27.30;61.00
2539;DHT22;1280;49.760;9.664;2022-08-25T12:00:37;27.30;60.90
2539;DHT22;1280;49.760;9.664;2022-08-25T12:03:45;27.30;60.80
2539;DHT22;1280;49.760;9.664;2022-08-25T12:06:20;27.40;60.70
2539;DHT22;1280;49.760;9.664;2022-08-25T12:08:54;27.40;60.60
2539;DHT22;1280;49.760;9.664;2022-08-25T12:11:48;27.40;60.60
2539;DHT22;1280;49.760;9.664;2022-08-25T12:14:36;27.40;60.50
2539;DHT22;1280;49.760;9.664;2022-08-25T12:17:15;27.40;60.50
2539;DHT22;1280;49.760;9.664;2022-08-25T12:19:53;27.40;60.50
2539;DHT22;1280;49.760;9.664;2022-08-25T12:22:40;27.50;60.30
2539;DHT22;1280;49.760;9.664;2022-08-25T12:25:38;27.50;60.20
2539;DHT22;1280;49.760;9.664;2022-08-25T12:28:30;27.50;60.10
2539;DHT22;1280;49.760;9.664;2022-08-25T12:31:08;27.50;60.20
2539;DHT22;1280;49.760;9.664;2022-08-25T12:33:50;27.60;60.20
2539;DHT22;1280;49.760;9.664;2022-08-25T12:36:27;27.70;60.10
2539;DHT22;1280;49.760;9.664;2022-08-25T12:39:13;27.70;60.00
2539;DHT22;1280;49.760;9.664;2022-08-25T12:41:55;27.80;59.90
2539;DHT22;1280;49.760;9.664;2022-08-25T12:44:39;27.90;59.70
2539;DHT22;1280;49.760;9.664;2022-08-25T12:47:26;28.00;59.60
2539;DHT22;1280;49.760;9.664;2022-08-25T12:50:30;28.00;59.00
2539;DHT22;1280;49.760;9.664;2022-08-25T12:53:14;28.10;59.20
2539;DHT22;1280;49.760;9.664;2022-08-25T12:55:47;28.20;59.00
2539;DHT22;1280;49.760;9.664;2022-08-25T12:58:16;28.30;58.70
2539;DHT22;1280;49.760;9.664;2022-08-25T13:00:56;28.40;58.60
2539;DHT22;1280;49.760;9.664;2022-08-25T13:03:57;28.40;58.30
2539;DHT22;1280;49.760;9.664;2022-08-25T13:06:51;28.40;58.20
2539;DHT22;1280;49.760;9.664;2022-08-25T13:09:57;28.30;57.90
2539;DHT22;1280;49.760;9.664;2022-08-25T13:12:34;28.30;57.60
2539;DHT22;1280;49.760;9.664;2022-08-25T13:15:04;28.30;58.00
2539;DHT22;1280;49.760;9.664;2022-08-25T13:17:34;28.30;58.00
2539;DHT22;1280;49.760;9.664;2022-08-25T13:20:13;28.30;57.60
2539;DHT22;1280;49.760;9.664;2022-08-25T13:22:43;28.40;56.90
2539;DHT22;1280;49.760;9.664;2022-08-25T13:25:16;28.40;57.30
2539;DHT22;1280;49.760;9.664;2022-08-25T13:27:55;28.60;57.00
2539;DHT22;1280;49.760;9.664;2022-08-25T13:30:26;28.60;56.80
2539;DHT22;1280;49.760;9.664;2022-08-25T13:32:56;28.70;56.60
2539;DHT22;1280;49.760;9.664;2022-08-25T13:35:26;28.70;56.50
2539;DHT22;1280;49.760;9.664;2022-08-25T13:38:11;28.80;56.40
2539;DHT22;1280;49.760;9.664;2022-08-25T13:40:39;28.80;56.30
2539;DHT22;1280;49.760;9.664;2022-08-25T13:43:11;28.90;56.20
2539;DHT22;1280;49.760;9.664;2022-08-25T13:45:42;28.90;56.20
2539;DHT22;1280;49.760;9.664;2022-08-25T13:48:13;29.00;56.00
2539;DHT22;1280;49.760;9.664;2022-08-25T13:51:06;29.10;55.90
2539;DHT22;1280;49.760;9.664;2022-08-25T13:53:36;29.20;55.60
2539;DHT22;1280;49.760;9.664;2022-08-25T13:56:05;29.10;55.60
2539;DHT22;1280;49.760;9.664;2022-08-25T13:58:35;29.10;55.50
2539;DHT22;1280;49.760;9.664;2022-08-25T14:01:13;29.10;55.50
2539;DHT22;1280;49.760;9.664;2022-08-25T14:04:27;29.10;55.60
2539;DHT22;1280;49.760;9.664;2022-08-25T14:07:25;29.20;55.40
2539;DHT22;1280;49.760;9.664;2022-08-25T14:10:02;29.30;55.20
2539;DHT22;1280;49.760;9.664;2022-08-25T14:12:34;29.30;55.10
2539;DHT22;1280;49.760;9.664;2022-08-25T14:15:07;29.30;55.10
2539;DHT22;1280;49.760;9.664;2022-08-25T14:17:36;29.40;54.90
2539;DHT22;1280;49.760;9.664;2022-08-25T14:20:16;29.50;54.80
2539;DHT22;1280;49.760;9.664;2022-08-25T14:22:45;29.50;54.70
2539;DHT22;1280;49.760;9.664;2022-08-25T14:25:13;29.50;54.70
2539;DHT22;1280;49.760;9.664;2022-08-25T14:27:42;29.60;54.80
2539;DHT22;1280;49.760;9.664;2022-08-25T14:30:33;29.60;54.70
2539;DHT22;1280;49.760;9.664;2022-08-25T14:33:02;29.50;54.70
2539;DHT22;1280;49.760;9.664;2022-08-25T14:35:34;29.50;54.80
2539;DHT22;1280;49.760;9.664;2022-08-25T14:38:06;29.40;54.90
2539;DHT22;1280;49.760;9.664;2022-08-25T14:40:35;29.40;55.00
2539;DHT22;1280;49.760;9.664;2022-08-25T14:43:03;29.40;55.10
2539;DHT22;1280;49.760;9.664;2022-08-25T14:45:37;29.40;55.20
2539;DHT22;1280;49.760;9.664;2022-08-25T14:48:08;29.40;55.20
2539;DHT22;1280;49.760;9.664;2022-08-25T14:50:38;29.40;55.10
2539;DHT22;1280;49.760;9.664;2022-08-25T14:53:08;29.50;55.00
2539;DHT22;1280;49.760;9.664;2022-08-25T14:55:37;29.50;54.90
2539;DHT22;1280;49.760;9.664;2022-08-25T14:58:06;29.50;54.80
2539;DHT22;1280;49.760;9.664;2022-08-25T15:00:34;29.50;54.80
2539;DHT22;1280;49.760;9.664;2022-08-25T15:03:03;29.60;54.80
2539;DHT22;1280;49.760;9.664;2022-08-25T15:05:32;29.60;54.70
2539;DHT22;1280;49.760;9.664;2022-08-25T15:08:01;29.60;54.60
2539;DHT22;1280;49.760;9.664;2022-08-25T15:10:47;29.60;54.60
2539;DHT22;1280;49.760;9.664;2022-08-25T15:13:15;29.60;54.50
2539;DHT22;1280;49.760;9.664;2022-08-25T15:15:45;29.60;54.40
2539;DHT22;1280;49.760;9.664;2022-08-25T15:18:19;29.60;54.30
2539;DHT22;1280;49.760;9.664;2022-08-25T15:20:47;29.60;54.20
2539;DHT22;1280;49.760;9.664;2022-08-25T15:23:18;29.60;54.00
2539;DHT22;1280;49.760;9.664;2022-08-25T15:25:47;29.60;54.00
2539;DHT22;1280;49.760;9.664;2022-08-25T15:28:19;29.60;54.10
2539;DHT22;1280;49.760;9.664;2022-08-25T15:30:48;29.70;54.10
2539;DHT22;1280;49.760;9.664;2022-08-25T15:33:16;29.80;53.90
2539;DHT22;1280;49.760;9.664;2022-08-25T15:35:44;29.90;53.80
2539;DHT22;1280;49.760;9.664;2022-08-25T15:38:17;30.00;53.70
2539;DHT22;1280;49.760;9.664;2022-08-25T15:40:46;30.10;53.60
2539;DHT22;1280;49.760;9.664;2022-08-25T15:43:14;30.10;53.40
2539;DHT22;1280;49.760;9.664;2022-08-25T15:45:42;30.10;53.30
2539;DHT22;1280;49.760;9.664;2022-08-25T15:48:12;30.10;53.20
2539;DHT22;1280;49.760;9.664;2022-08-25T15:50:40;30.10;53.20
2539;DHT22;1280;49.760;9.664;2022-08-25T15:53:08;30.10;53.00
2539;DHT22;1280;49.760;9.664;2022-08-25T15:55:39;30.20;53.10
2539;DHT22;1280;49.760;9.664;2022-08-25T15:58:07;30.10;53.00
2539;DHT22;1280;49.760;9.664;2022-08-25T16:00:35;30.20;52.90
2539;DHT22;1280;49.760;9.664;2022-08-25T16:03:03;30.10;52.90
2539;DHT22;1280;49.760;9.664;2022-08-25T16:05:34;30.10;52.90
2539;DHT22;1280;49.760;9.664;2022-08-25T16:08:03;30.10;52.90
2539;DHT22;1280;49.760;9.664;2022-08-25T16:10:42;30.00;52.90
2539;DHT22;1280;49.760;9.664;2022-08-25T16:13:11;30.00;53.00
2539;DHT22;1280;49.760;9.664;2022-08-25T16:15:39;30.00;52.90
2539;DHT22;1280;49.760;9.664;2022-08-25T16:18:19;29.90;53.10
2539;DHT22;1280;49.760;9.664;2022-08-25T16:20:47;29.90;53.20
2539;DHT22;1280;49.760;9.664;2022-08-25T16:23:17;29.90;53.20
2539;DHT22;1280;49.760;9.664;2022-08-25T16:25:46;29.90;53.20
2539;DHT22;1280;49.760;9.664;2022-08-25T16:28:17;29.90;53.20
2539;DHT22;1280;49.760;9.664;2022-08-25T16:30:50;29.90;53.20
2539;DHT22;1280;49.760;9.664;2022-08-25T16:33:19;29.90;53.20
2539;DHT22;1280;49.760;9.664;2022-08-25T16:35:47;30.00;53.20
2539;DHT22;1280;49.760;9.664;2022-08-25T16:38:15;30.00;53.30
2539;DHT22;1280;49.760;9.664;2022-08-25T16:40:45;30.00;53.90
2539;DHT22;1280;49.760;9.664;2022-08-25T16:43:13;30.00;54.20